Bordj Bou Arreridj, Algeria
Current Conditions -  °F | °C
As of 10:00 PM on Wednesday 28 Jan 2015 (Local Time) from DAAS Reporting Station
Broken Clouds Broken Clouds  
Wind Chill: 27°   Ceiling: 2600
Heat Index: 36°   Visibility: 4mi
Dew Point: 34°   Wind: 14mph
Humidity: 93%   Direction: 300°WNW
Pressure: 30.12"   Gusts: NA
Location:  36.06°N, 4.63°E
Report Text: DAAS 282100Z 30012KT 7000 SCT010 BKN026 02/01 Q1020
Loading
Personal Weather Stations






























Interactive Weather Map New forecast layout! Learn more

10-Day Weather Forecast

Advertisements
Track Severe Weather on mobile